Aérodrome :
LOGIN :

S'inscrire | Disclaimer

   EN    FR    IT 

 










Légende :    VFR   VFR Marginal   IFR   IFR Intensif   IFR Très Intensif
Visi : 
Plafond : 
>= 8 km
>= 3000ft
5 à 8 km
1000 à 3000 ft
1500m à 5 km
500 à 1000 ft
800 à 1500m
200 à 500 ft
< 800m
< 200 ft
Symboles :   Orages  Brouillard  Fortes neiges  Fortes précipitations  Vent > 20 kt
SIGMETs :   Divers  Orages  Givrage  Turbulence  Onde Orograph.  Cendres Volcan.






- Altitude de l'aérodrome : 1046 ft
- Code IATA : NUE


EDDN - Nuremberg

DERNIER METAR :
  • 171920Z 25012KT 9999 VCSH FEW030CB 12/07 Q1009 TEMPO SHRA

METARs EXPIRÉS :
  • 171850Z 24010KT 9999 FEW030CB SCT035 12/07 Q1009 TEMPO SHRA
  • 171820Z 25012KT 9999 FEW030CB SCT035 13/06 Q1009 TEMPO SHRA
  • 171750Z 25018KT 9999 FEW030CB SCT035 13/06 Q1008 NOSIG
  • 171720Z 25014KT 9999 SCT035 14/06 Q1008 NOSIG
  • 171650Z 25017KT 210V270 9999 SCT035 15/05 Q1008 NOSIG

TAF TAF EDDN
Valide du 17 à 18h jusqu'au 18 à 18h UTC


171700Z 1718/1818 26012KT 9999 SCT035
PROB30
TEMPO 1718/1720 26015G25KT SHRA BKN030CB
PROB30
TEMPO 1805/1818 27015G25KT SHRA BKN025CB
BECMG 1816/1818 26007KT



MET'MAP, la Météo Aéronautique d'un coup d'oeil ! - Copyright ORBIFLY Décembre 2007 - Disclaimer

ORBIFLY MET'MAP TEAM :

Programmation & Développement : Alexandra Zaïnal
Sur une idée originale de : Baudouin d'Aumeries
Assistance à la programmation : Marc-Olivier Méhu
Soutien technique & logistique : Manuel Goepfert

Contact : metmap@orbifly.com




SOURCES & CREDITS :

   NOAA